Terminal Aerodrome Forecast
Issued by NWS

Home | Current Version | Previous Version | Text Only | Print | Product List | Glossary On
Versions: 1 2 3 4 5 6 7 8 9 10 11 12 13 14 15 16 17 18 19 20 21 22 23 24 25 26 27 28 29
917
FTAK31 PANC 270538
TAFADL
TAF
PADL 270538Z 2706/2806 VRB03KT P6SM SCT035
     FM271000 30005KT P6SM SCT040 SCT080
     FM272200 17008KT P6SM SCT050 BKN080
     FM280400 18006KT P6SM BKN035=

USA.gov is the U.S. government's official web portal to all federal, state and local government web resources and services.